• Join FlightAware (Why Join?)
  • Login
  • US Flag 
02:32PM EDT


 

Airport Tracker/Info


-or-


 

Live Flight TrackerFlight Track Log ✈ DAL268 ✈ 07-Sep-2013 ✈ KJFK - LLBG / TLV

Flight Track Log - Related Links

Times and Time Zones

All times are in EDT time to prevent confusion due to time zone crossing. See the DAL268 flight status page for this flight to view local times or setup timezone preferences in your user account.

Time Position Orientation Groundspeed Altitude Reporting Facility
EDT Latitude Longitude Course Direction KTS MPH feet Rate Location/Type
12:14AM 40.6440 -73.8060 159° South 105 121  Level FlightAware
12:14AM 40.6360 -73.7900 123° Southeast 143 165 660 Level FlightAware
12:15AM 40.6260 -73.7670 120° Southeast 190 219 500 1,440 Climbing FlightAware
12:15AM 40.6210 -73.7510 112° Southeast 199 229 900 1,560 Climbing FlightAware
12:15AM 40.6170 -73.7220 100° East 205 236 1,500 1,140 Climbing FlightAware
12:15AM 40.6150 -73.6990 97° East 224 258 1,700 720 Climbing FlightAware
12:16AM 40.6130 -73.6700 95° East 249 287 2,000 780 Climbing FlightAware
12:16AM 40.6110 -73.6450 96° East 263 303 2,200 960 Climbing FlightAware
12:16AM 40.6080 -73.6120 97° East 279 321 2,600 1,260 Climbing FlightAware
12:17AM 40.6060 -73.5910 97° East 288 331 2,900 2,100 Climbing FlightAware
12:17AM 40.6090 -73.5280 86° East 292 336 4,300 2,160 Climbing FlightAware
12:17AM 40.6140 -73.5140 65° Northeast 294 338 4,500 1,860 Climbing FlightAware
12:17AM 40.6210 -73.5010 55° Northeast 300 345 4,800 2,100 Climbing FlightAware
12:18AM 40.6330 -73.4860 43° Northeast 305 351 5,200 2,100 Climbing FlightAware
12:18AM 40.6420 -73.4780 34° Northeast 305 351 5,500 2,460 Climbing FlightAware
12:18AM 40.6540 -73.4700 27° Northeast 306 352 5,900 2,460 Climbing FlightAware
12:18AM 40.6810 -73.4610 14° North 303 349 6,700 2,520 Climbing FlightAware
12:19AM 40.7060 -73.4580 North 302 348 7,500 2,160 Climbing FlightAware
12:19AM 40.7380 -73.4510 North 309 356 8,200 1,920 Climbing FlightAware
12:19AM 40.7650 -73.4380 20° North 314 361 8,900 2,160 Climbing FlightAware
12:20AM 40.7980 -73.4210 21° North 319 367 9,800 1,980 Climbing FlightAware
12:20AM 40.8440 -73.4010 18° North 326 375 10,800 1,500 Climbing FlightAware
12:21AM 40.8960 -73.3750 21° North 353 406 11,500 1,260 Climbing FlightAware
12:21AM 40.9540 -73.3470 20° North 377 434 12,300 1,380 Climbing FlightAware
12:22AM 41.0150 -73.3170 20° North 397 457 13,200 1,800 Climbing FlightAware
12:23AM 41.0700 -73.2680 34° Northeast 415 478 14,500 2,100 Climbing FlightAware
12:23AM 41.1130 -73.2060 47° Northeast 426 490 15,600 2,100 Climbing FlightAware
12:24AM 41.1620 -73.1360 47° Northeast 433 498 16,900 1,980 Climbing FlightAware
12:24AM 41.2110 -73.0640 48° Northeast 443 510 18,000 1,620 Climbing FlightAware
12:25AM 41.2610 -72.9910 48° Northeast 455 524 18,900 1,560 Climbing FlightAware
12:26AM 41.3070 -72.9260 47° Northeast 463 533 19,800 1,500 Climbing FlightAware
12:26AM 41.3530 -72.8580 48° Northeast 473 544 20,600 1,500 Climbing FlightAware
12:27AM 41.4000 -72.7890 48° Northeast 477 549 21,500 1,680 Climbing FlightAware
12:27AM 41.4600 -72.7010 48° Northeast 482 555 22,600 1,680 Climbing FlightAware
12:28AM 41.5150 -72.6220 47° Northeast 487 560 23,600 1,560 Climbing FlightAware
12:28AM 41.5490 -72.5770 45° Northeast 491 565 24,100 1,320 Climbing FlightAware
12:29AM 41.6080 -72.5000 44° Northeast 497 572 24,900 1,200 Climbing FlightAware
12:29AM 41.6700 -72.4210 44° Northeast 503 579 25,600 1,140 Climbing FlightAware
12:30AM 41.7300 -72.3460 43° Northeast 509 586 26,300 1,200 Climbing FlightAware
12:31AM 41.7980 -72.2610 43° Northeast 516 594 27,100 1,080 Climbing FlightAware
12:31AM 41.8580 -72.1840 44° Northeast 516 594 27,700 1,080 Climbing FlightAware
12:32AM 41.9520 -72.0640 43° Northeast 519 597 28,800 1,440 Climbing FlightAware
12:33AM 42.0200 -71.9770 44° Northeast 515 593 29,900 1,620 Climbing FlightAware
12:33AM 42.0730 -71.9080 44° Northeast 518 596 30,600 960 Climbing FlightAware
12:34AM 42.1340 -71.8300 43° Northeast 515 593 31,000 300 Climbing FlightAware
12:35AM 42.2030 -71.7420 43° Northeast 519 597 31,000  Level FlightAware
12:35AM 42.2650 -71.6610 44° Northeast 520 598 31,000  Level FlightAware
12:36AM 42.3170 -71.5930 44° Northeast 516 594 31,000  Level FlightAware
12:36AM 42.3850 -71.5050 44° Northeast 519 597 31,000  Level FlightAware
12:37AM 42.4470 -71.4220 45° Northeast 522 601 31,000  Level FlightAware
12:37AM 42.5010 -71.3530 43° Northeast 524 603 31,000  Level FlightAware
12:38AM 42.5610 -71.2720 45° Northeast 523 602 31,000  Level FlightAware
12:39AM 42.6240 -71.1890 44° Northeast 524 603 31,000  Level FlightAware
12:39AM 42.6860 -71.1080 44° Northeast 524 603 31,000  Level FlightAware
12:39AM 42.7100 -71.0770 43° Northeast 524 603 31,000  Level FlightAware
12:40AM 42.7810 -70.9820 44° Northeast 525 604 31,000  Level FlightAware
12:41AM 42.8310 -70.9140 45° Northeast 525 604 31,000  Level FlightAware
12:41AM 42.8930 -70.8320 44° Northeast 525 604 31,000  Level FlightAware
12:42AM 42.9510 -70.7550 44° Northeast 524 603 31,000  Level FlightAware
12:42AM 42.9850 -70.7100 44° Northeast 525 604 31,000  Level FlightAware
12:43AM 43.0510 -70.6210 45° Northeast 525 604 31,000  Level FlightAware
12:43AM 43.1230 -70.5210 45° Northeast 525 604 31,000  Level FlightAware
12:43AM 43.1360 -70.5050 42° Northeast 525 604 31,000  Level FlightAware
12:44AM 43.1810 -70.4430 45° Northeast 526 605 31,000  Level FlightAware
12:44AM 43.2370 -70.3680 44° Northeast 526 605 31,000  Level FlightAware
12:45AM 43.2970 -70.2870 44° Northeast 526 605 31,000  Level FlightAware
12:45AM 43.3290 -70.2440 44° Northeast 527 606 31,000  Level FlightAware
12:46AM 43.3660 -70.1910 46° Northeast 528 608 31,000  Level FlightAware
12:46AM 43.4070 -70.1360 44° Northeast 528 608 31,000  Level FlightAware
12:47AM 43.4750 -70.0430 45° Northeast 527 606 31,000  Level FlightAware
12:48AM 43.5750 -69.9030 45° Northeast 529 609 31,000  Level FlightAware
12:48AM 43.6400 -69.8140 45° Northeast 529 609 31,000  Level FlightAware
12:49AM 43.6920 -69.7410 45° Northeast 530 610 31,000  Level FlightAware
12:49AM 43.7670 -69.6370 45° Northeast 530 610 31,000  Level FlightAware
12:50AM 43.8230 -69.5620 44° Northeast 530 610 31,000  Level FlightAware
12:51AM 43.8770 -69.4900 44° Northeast 530 610 31,000  Level FlightAware
12:51AM 43.9310 -69.4180 44° Northeast 530 610 31,000  Level FlightAware
12:52AM 44.0410 -69.2500 48° Northeast 533 613 31,000  Level FlightAware
12:53AM 44.0940 -69.1750 45° Northeast 532 612 31,000  Level FlightAware
12:53AM 44.1300 -69.1240 45° Northeast 532 612 31,000  Level FlightAware
12:53AM 44.1690 -69.0700 45° Northeast 532 612 31,000  Level FlightAware
12:54AM 44.2030 -69.0210 46° Northeast 531 611 31,000  Level FlightAware
12:54AM 44.2280 -68.9840 47° Northeast 531 611 31,000  Level FlightAware
12:54AM 44.2500 -68.9540 44° Northeast 531 611 31,000  Level FlightAware
12:54AM 44.2880 -68.9000 45° Northeast 531 611 31,000  Level FlightAware
12:55AM 44.3220 -68.8510 46° Northeast 531 611 31,000  Level FlightAware
12:55AM 44.3840 -68.7600 46° Northeast 532 612 31,000  Level FlightAware
12:56AM 44.4450 -68.6730 46° Northeast 532 612 31,000  Level FlightAware
12:56AM 44.4620 -68.6480 46° Northeast 532 612 31,000  Level FlightAware
12:57AM 44.5270 -68.5540 46° Northeast 532 612 31,000  Level FlightAware
12:57AM 44.5890 -68.4650 46° Northeast 532 612 31,000  Level FlightAware
12:58AM 44.6440 -68.3850 46° Northeast 533 613 31,000  Level FlightAware
12:59AM 44.7070 -68.2920 46° Northeast 534 615 31,000 240 Level FlightAware
12:59AM 44.7670 -68.2020 47° Northeast 537 618 31,300 780 Climbing FlightAware
01:00AM 44.8230 -68.1210 46° Northeast 538 619 31,900 1,080 Climbing FlightAware
01:00AM 44.8850 -68.0290 46° Northeast 539 620 32,600 900 Climbing FlightAware
01:01AM 44.9470 -67.9370 46° Northeast 542 624 33,000 300 Climbing FlightAware
01:01AM 45.0080 -67.8440 47° Northeast 542 624 33,000  Level FlightAware
01:02AM 45.0640 -67.7620 46° Northeast 542 624 33,000  Level FlightAware
01:03AM 45.1250 -67.6690 47° Northeast 542 624 33,000  Level FlightAware
01:03AM 45.1810 -67.5870 46° Northeast 541 623 33,000  Level FlightAware
01:04AM 45.2480 -67.4860 47° Northeast 543 625 33,000  Level FlightAware
01:05AM 45.3310 -67.3610 47° Northeast 544 626 33,000  Level FlightAware
01:05AM 45.3910 -67.2690 47° Northeast 546 628 33,000  Level FlightAware
01:06AM 45.4510 -67.1770 47° Northeast 548 631 33,000  Level FlightAware
01:06AM 45.5100 -67.0870 47° Northeast 549 632 33,000  Level FlightAware
01:07AM 45.5730 -66.9880 48° Northeast 546 628 33,000  Level FlightAware
01:08AM 45.6310 -66.9000 47° Northeast 547 629 33,000  Level FlightAware
01:08AM 45.6940 -66.8030 47° Northeast 548 631 33,000  Level FlightAware
01:09AM 45.7420 -66.7250 49° Northeast 549 632 33,000  Level FlightAware
01:09AM 45.8330 -66.5870 47° Northeast 550 633 33,000  Level FlightAware
01:10AM 45.8860 -66.5010 48° Northeast 550 633 33,000  Level FlightAware
01:11AM 45.9710 -66.3690 47° Northeast 550 633 33,000  Level FlightAware
01:11AM 46.0010 -66.3210 48° Northeast 552 635 33,000  Level FlightAware
01:12AM 46.0530 -66.2370 48° Northeast 552 635 33,000  Level FlightAware
01:13AM 46.1070 -66.1510 48° Northeast 552 635 33,000  Level FlightAware
01:13AM 46.1590 -66.0670 48° Northeast 552 635 33,000  Level FlightAware
01:14AM 46.2110 -65.9830 48° Northeast 552 635 33,000  Level FlightAware
01:14AM 46.2640 -65.8990 48° Northeast 552 635 33,000  Level FlightAware
01:15AM 46.3160 -65.8150 48° Northeast 552 635 33,000  Level FlightAware
01:16AM 46.3680 -65.7310 48° Northeast 552 635 33,000  Level FlightAware
01:16AM 46.4200 -65.6470 48° Northeast 552 635 33,000  Level FlightAware
01:17AM 46.4730 -65.5630 47° Northeast 552 635 33,000  Level FlightAware
01:17AM 46.5250 -65.4780 48° Northeast 552 635 33,000  Level FlightAware
01:18AM 46.5770 -65.3940 48° Northeast 552 635 33,000  Level FlightAware
01:19AM 46.6310 -65.3070 48° Northeast 552 635 33,000  Level FlightAware
01:19AM 46.6830 -65.2220 48° Northeast 552 635 33,000  Level FlightAware
01:20AM 46.7370 -65.1350 48° Northeast 552 635 33,000  Level FlightAware
01:20AM 46.7890 -65.0500 48° Northeast 552 635 33,000  Level FlightAware
01:21AM 47.0333 -64.6333 48° Northeast 560 644 33,000  Level Gander Center
01:22AM 47.0833 -64.5500 49° Northeast 560 644 33,000  Level Moncton Center
01:23AM 47.1833 -64.3500 54° Northeast 560 644 33,000  Level Moncton Center
01:24AM 47.2833 -64.2000 45° Northeast 560 644 33,000  Level Moncton Center
01:25AM 47.3833 -64.0333 48° Northeast 560 644 33,000  Level Moncton Center
01:26AM 47.4833 -63.8333 53° Northeast 560 644 33,000  Level Moncton Center
01:27AM 47.5833 -63.6833 45° Northeast 560 644 33,000  Level Moncton Center
01:28AM 47.7000 -63.4833 49° Northeast 570 656 33,000  Level Moncton Center
01:29AM 47.8000 -63.3000 51° Northeast 570 656 33,000  Level Moncton Center
01:30AM 47.9000 -63.1167 51° Northeast 570 656 33,000  Level Moncton Center
01:31AM 48.0000 -62.9500 48° Northeast 570 656 33,000  Level Moncton Center
01:32AM 48.0833 -62.7667 56° Northeast 570 656 33,000  Level Moncton Center
01:32AM 48.1667 -62.6167 50° Northeast 570 656 33,000  Level Gander Center
01:33AM 48.2833 -62.4167 49° Northeast 580 667 33,000  Level Gander Center
01:34AM 48.3833 -62.2333 51° Northeast 570 656 33,000  Level Gander Center
01:35AM 48.4833 -62.0667 48° Northeast 580 667 33,000  Level Gander Center
01:36AM 48.5833 -61.8667 53° Northeast 570 656 33,000  Level Gander Center
01:37AM 48.6833 -61.6833 50° Northeast 580 667 33,000  Level Gander Center
01:38AM 48.7833 -61.4833 53° Northeast 570 656 33,000  Level Gander Center
01:39AM 48.8833 -61.3000 50° Northeast 570 656 33,000  Level Gander Center
01:40AM 48.9833 -61.1000 53° Northeast 570 656 33,000  Level Gander Center
01:41AM 49.0833 -60.9167 50° Northeast 570 656 33,000  Level Gander Center
01:42AM 49.1667 -60.7500 53° Northeast 570 656 33,000  Level Gander Center
01:43AM 49.2667 -60.5333 55° Northeast 570 656 33,000  Level Gander Center
01:44AM 49.3667 -60.3500 50° Northeast 570 656 33,000  Level Gander Center
01:45AM 49.4667 -60.1500 52° Northeast 560 644 33,000  Level Gander Center
01:46AM 49.5667 -59.9667 50° Northeast 570 656 33,000  Level Gander Center
01:52AM 50.1360 -58.8210 50° Northeast 574 661 33,000  Level FlightAware
01:53AM 50.1770 -58.7210 57° Northeast 574 661 33,000  Level FlightAware
01:53AM 50.2350 -58.5820 57° Northeast 572 658 33,000  Level FlightAware
01:54AM 50.2800 -58.4790 56° Northeast 572 658 33,000  Level FlightAware
01:55AM 50.3260 -58.3740 56° Northeast 572 658 33,000  Level FlightAware
01:55AM 50.3710 -58.2690 56° Northeast 572 658 33,000  Level FlightAware
01:56AM 50.4380 -58.0970 59° Northeast 567 652 33,000  Level FlightAware
01:56AM 50.4890 -57.9780 56° Northeast 567 652 33,000  Level FlightAware
01:57AM 50.5350 -57.8700 56° Northeast 567 652 33,000  Level FlightAware
01:58AM 50.5810 -57.7620 56° Northeast 567 652 33,000  Level FlightAware
01:59AM 50.7270 -57.3920 58° Northeast 33,000  Level FlightAware
02:00AM 50.7833 -57.1833 58° Northeast 580 667 33,000  Level Gander Center
02:01AM 50.8333 -57.0500 59° Northeast 570 656 33,000  Level Moncton Center
02:01AM 50.8833 -56.9000 62° Northeast 570 656 33,000  Level Gander Center
02:02AM 50.9833 -56.6833 54° Northeast 570 656 33,000  Level Gander Center
02:03AM 51.0500 -56.4667 64° Northeast 570 656 33,000  Level Gander Center
02:04AM 51.1500 -56.2333 56° Northeast 560 644 33,000  Level Gander Center
02:05AM 51.2333 -56.0500 54° Northeast 580 667 33,000  Level Gander Center
02:06AM 51.3167 -55.8000 62° Northeast 570 656 33,000  Level Gander Center
02:07AM 51.4000 -55.6000 56° Northeast 570 656 33,000  Level Gander Center
02:08AM 51.4833 -55.4000 56° Northeast 570 656 33,000  Level Gander Center
02:09AM 51.5667 -55.1500 62° Northeast 570 656 33,000  Level Gander Center
02:10AM 51.6333 -54.9500 62° Northeast 570 656 33,000  Level Gander Center
02:11AM 51.7333 -54.7167 55° Northeast 570 656 33,000 300 Level Gander Center
02:12AM 51.8000 -54.4833 65° Northeast 570 656 33,700 480 Climbing Gander Center
02:13AM 51.8833 -54.2500 60° Northeast 570 656 34,000 120 Climbing Gander Center
02:14AM 51.9500 -54.0500 62° Northeast 570 656 34,000  Level Gander Center
02:15AM 52.0333 -53.8333 58° Northeast 570 656 34,000  Level Gander Center
02:16AM 52.1167 -53.6000 60° Northeast 570 656 34,000  Level Gander Center
02:17AM 52.1833 -53.3833 63° Northeast 570 656 34,000  Level Gander Center
02:18AM 52.2500 -53.1333 66° East 580 667 34,000  Level Gander Center
02:19AM 52.3167 -52.9000 65° Northeast 570 656 34,000  Level Gander Center
02:20AM 52.3667 -52.6667 71° East 560 644 34,000  Level Gander Center
02:21AM 52.4333 -52.4333 65° Northeast 560 644 34,000  Level Gander Center
02:22AM 52.4833 -52.1833 72° East 570 656 34,000  Level Gander Center
02:23AM 52.5500 -51.9500 65° Northeast 570 656 34,000  Level Gander Center
02:26AM 52.2167 -53.3667 68° East 562 647 34,000  Level ETMS Enhanced Traffic Management System
02:26AM 52.6500 -51.2500 68° East 480 552 34,000  Level Gander Center
02:27AM 52.7167 -51.0167 65° Northeast 570 656 34,000  Level Gander Center
02:28AM 52.7667 -50.7833 70° East 580 667 34,000  Level Gander Center
02:29AM 52.8167 -50.5167 73° East 570 656 34,000  Level Gander Center
02:31AM 52.9018 -50.2781 59° Northeast  Level FlightAware Approximate
02:38AM 53.1844 -48.6524 77° East  Level FlightAware Approximate
02:39AM 53.2152 -48.4149 78° East  Level FlightAware Approximate
02:40AM 53.2455 -48.1772 78° East  Level FlightAware Approximate
02:41AM 53.2753 -47.9390 78° East  Level FlightAware Approximate
02:42AM 53.3047 -47.7006 78° East  Level FlightAware Approximate
02:43AM 53.3335 -47.4619 78° East  Level FlightAware Approximate
02:44AM 53.3619 -47.2228 79° East  Level FlightAware Approximate
02:45AM 53.3898 -46.9834 79° East  Level FlightAware Approximate
02:46AM 53.4173 -46.7437 79° East  Level FlightAware Approximate
02:47AM 53.4442 -46.5037 79° East  Level FlightAware Approximate
02:48AM 53.4707 -46.2633 80° East  Level FlightAware Approximate
02:49AM 53.4967 -46.0227 80° East  Level FlightAware Approximate
02:50AM 53.5222 -45.7818 80° East  Level FlightAware Approximate
02:51AM 53.5472 -45.5406 80° East  Level FlightAware Approximate
02:52AM 53.5718 -45.2992 80° East  Level FlightAware Approximate
02:53AM 53.5959 -45.0574 80° East  Level FlightAware Approximate
02:54AM 53.6194 -44.8154 81° East  Level FlightAware Approximate
02:55AM 53.6425 -44.5731 81° East  Level FlightAware Approximate
02:56AM 53.6651 -44.3306 81° East  Level FlightAware Approximate
02:57AM 53.6872 -44.0877 81° East  Level FlightAware Approximate
02:58AM 53.7089 -43.8447 81° East  Level FlightAware Approximate
02:59AM 53.7300 -43.6014 82° East  Level FlightAware Approximate
03:00AM 53.7506 -43.3578 82° East  Level FlightAware Approximate
03:01AM 53.7708 -43.1141 82° East  Level FlightAware Approximate
03:02AM 53.7904 -42.8700 82° East  Level FlightAware Approximate
03:03AM 53.8096 -42.6258 82° East  Level FlightAware Approximate
03:04AM 53.8292 -42.3816 82° East  Level FlightAware Approximate
03:05AM 53.8490 -42.1372 82° East  Level FlightAware Approximate
03:06AM 53.8682 -41.8927 82° East  Level FlightAware Approximate
03:07AM 53.8870 -41.6479 82° East  Level FlightAware Approximate
03:08AM 53.9053 -41.4029 83° East  Level FlightAware Approximate
03:09AM 53.9230 -41.1577 83° East  Level FlightAware Approximate
03:10AM 53.9403 -40.9123 83° East  Level FlightAware Approximate
03:11AM 53.9571 -40.6667 83° East  Level FlightAware Approximate
03:12AM 53.9733 -40.4209 83° East  Level FlightAware Approximate
03:13AM 53.9891 -40.1749 84° East  Level FlightAware Approximate
03:14AM 54.0100 -39.9304 76° East  Level FlightAware Approximate
03:15AM 54.0443 -39.6896 76° East  Level FlightAware Approximate
03:16AM 54.0780 -39.4484 76° East  Level FlightAware Approximate
03:17AM 54.1113 -39.2069 77° East  Level FlightAware Approximate
03:18AM 54.1441 -38.9649 77° East  Level FlightAware Approximate
03:19AM 54.1765 -38.7226 77° East  Level FlightAware Approximate
03:20AM 54.2083 -38.4799 77° East  Level FlightAware Approximate
03:21AM 54.2396 -38.2369 77° East  Level FlightAware Approximate
03:22AM 54.2705 -37.9934 78° East  Level FlightAware Approximate
03:23AM 54.3009 -37.7496 78° East  Level FlightAware Approximate
03:24AM 54.3307 -37.5055 78° East  Level FlightAware Approximate
03:25AM 54.3601 -37.2610 78° East  Level FlightAware Approximate
03:26AM 54.3890 -37.0161 78° East  Level FlightAware Approximate
03:27AM 54.4174 -36.7710 79° East  Level FlightAware Approximate
03:28AM 54.4453 -36.5254 79° East  Level FlightAware Approximate
03:29AM 54.4720 -36.2793 79° East  Level FlightAware Approximate
03:30AM 54.4980 -36.0329 80° East  Level FlightAware Approximate
03:31AM 54.5236 -35.7861 80° East  Level FlightAware Approximate
03:32AM 54.5487 -35.5391 80° East  Level FlightAware Approximate
03:33AM 54.5732 -35.2917 80° East  Level FlightAware Approximate
03:34AM 54.5973 -35.0441 80° East  Level FlightAware Approximate
03:35AM 54.6208 -34.7961 81° East  Level FlightAware Approximate
03:36AM 54.6438 -34.5479 81° East  Level FlightAware Approximate
03:37AM 54.6664 -34.2994 81° East  Level FlightAware Approximate
03:38AM 54.6884 -34.0506 81° East  Level FlightAware Approximate
03:39AM 54.7099 -33.8015 81° East  Level FlightAware Approximate
03:40AM 54.7309 -33.5522 82° East  Level FlightAware Approximate
03:41AM 54.7514 -33.3027 82° East  Level FlightAware Approximate
03:42AM 54.7714 -33.0529 82° East  Level FlightAware Approximate
03:43AM 54.7917 -32.8030 81° East  Level FlightAware Approximate
03:44AM 54.8130 -32.5533 81° East  Level FlightAware Approximate
03:45AM 54.8338 -32.3033 82° East  Level FlightAware Approximate
03:46AM 54.8540 -32.0530 82° East  Level FlightAware Approximate
03:47AM 54.8737 -31.8025 82° East  Level FlightAware Approximate
03:48AM 54.8929 -31.5517 82° East  Level FlightAware Approximate
03:49AM 54.9116 -31.3008 83° East  Level FlightAware Approximate
03:50AM 54.9298 -31.0495 83° East  Level FlightAware Approximate
03:51AM 54.9475 -30.7981 83° East  Level FlightAware Approximate
03:52AM 54.9646 -30.5463 83° East  Level FlightAware Approximate
03:53AM 54.9813 -30.2943 83° East  Level FlightAware Approximate
03:54AM 54.9973 -30.0430 84° East  Level FlightAware Approximate
03:55AM 55.0084 -29.7909 86° East  Level FlightAware Approximate
03:56AM 55.0181 -29.5384 86° East  Level FlightAware Approximate
03:57AM 55.0272 -29.2858 86° East  Level FlightAware Approximate
03:58AM 55.0358 -29.0331 86° East  Level FlightAware Approximate
03:59AM 55.0439 -28.7803 87° East  Level FlightAware Approximate
04:00AM 55.0514 -28.5275 87° East  Level FlightAware Approximate
04:01AM 55.0585 -28.2745 87° East  Level FlightAware Approximate
04:02AM 55.0650 -28.0214 87° East  Level FlightAware Approximate
04:03AM 55.0710 -27.7683 88° East  Level FlightAware Approximate
04:04AM 55.0765 -27.5150 88° East  Level FlightAware Approximate
04:05AM 55.0814 -27.2618 88° East  Level FlightAware Approximate
04:06AM 55.0858 -27.0084 88° East  Level FlightAware Approximate
04:07AM 55.0897 -26.7550 88° East  Level FlightAware Approximate
04:08AM 55.0930 -26.5016 89° East  Level FlightAware Approximate
04:09AM 55.0959 -26.2481 89° East  Level FlightAware Approximate
04:10AM 55.0982 -25.9946 89° East  Level FlightAware Approximate
04:11AM 55.1000 -25.7411 89° East  Level FlightAware Approximate
04:12AM 55.1012 -25.4875 89° East  Level FlightAware Approximate
04:13AM 55.1020 -25.2339 90° East  Level FlightAware Approximate
04:14AM 55.1022 -24.9803 90° East  Level FlightAware Approximate
04:15AM 55.1018 -24.7268 90° East  Level FlightAware Approximate
04:16AM 55.1010 -24.4732 90° East  Level FlightAware Approximate
04:17AM 55.0996 -24.2196 91° East  Level FlightAware Approximate
04:18AM 55.0978 -23.9661 91° East  Level FlightAware Approximate
04:19AM 55.0954 -23.7126 91° East  Level FlightAware Approximate
04:20AM 55.0925 -23.4591 91° East  Level FlightAware Approximate
04:21AM 55.0890 -23.2057 91° East  Level FlightAware Approximate
04:22AM 55.0851 -22.9523 91° East  Level FlightAware Approximate
04:23AM 55.0806 -22.6989 92° East  Level FlightAware Approximate
04:24AM 55.0756 -22.4457 92° East  Level FlightAware Approximate
04:25AM 55.0700 -22.1925 92° East  Level FlightAware Approximate
04:26AM 55.0640 -21.9393 92° East  Level FlightAware Approximate
04:27AM 55.0574 -21.6863 92° East  Level FlightAware Approximate
04:28AM 55.0502 -21.4320 93° East  Level FlightAware Approximate
04:29AM 55.0426 -21.1782 93° East  Level FlightAware Approximate
04:30AM 55.0344 -20.9246 93° East  Level FlightAware Approximate
04:31AM 55.0257 -20.6710 93° East  Level FlightAware Approximate
04:32AM 55.0164 -20.4176 94° East  Level FlightAware Approximate
04:33AM 55.0066 -20.1643 94° East  Level FlightAware Approximate
04:34AM 54.9893 -19.9129 102° East  Level FlightAware Approximate
04:35AM 54.9586 -19.6649 102° East  Level FlightAware Approximate
04:36AM 54.9274 -19.4174 102° East  Level FlightAware Approximate
04:37AM 54.8956 -19.1702 102° East  Level FlightAware Approximate
04:38AM 54.8634 -18.9235 103° East  Level FlightAware Approximate
04:39AM 54.8306 -18.6771 103° East  Level FlightAware Approximate
04:40AM 54.7974 -18.4311 103° East  Level FlightAware Approximate
04:41AM 54.7637 -18.1856 103° East  Level FlightAware Approximate
04:42AM 54.7294 -17.9404 103° East  Level FlightAware Approximate
04:43AM 54.6947 -17.6957 104° East  Level FlightAware Approximate
04:44AM 54.6595 -17.4514 104° East  Level FlightAware Approximate
04:45AM 54.6238 -17.2075 104° East  Level FlightAware Approximate
04:46AM 54.5876 -16.9640 104° East  Level FlightAware Approximate
04:47AM 54.5508 -16.7206 104° East  Level FlightAware Approximate
04:48AM 54.5136 -16.4776 105° East  Level FlightAware Approximate
04:49AM 54.4759 -16.2351 105° East  Level FlightAware Approximate
04:49AM 53.8560 -14.0760 105° East 568 654 34,000  Level FlightAware
04:50AM 54.4377 -15.9930 105° East  Level FlightAware Approximate
04:50AM 53.8340 -13.9380 105° East 568 654 34,000  Level FlightAware
04:50AM 53.8040 -13.7550 105° East 568 654 34,000  Level FlightAware
04:51AM 53.7780 -13.6010 106° East 569 655 34,000  Level FlightAware
04:52AM 53.7570 -13.4680 105° East 568 654 34,000  Level FlightAware
04:52AM 53.7280 -13.2970 106° East 567 652 34,000 180 Level FlightAware
04:53AM 53.6960 -13.1100 106° East 563 648 34,300 480 Climbing FlightAware
04:53AM 53.6740 -12.9830 106° East 564 649 34,600 420 Climbing FlightAware
04:54AM 53.6490 -12.8340 106° East 568 654 34,800 300 Climbing FlightAware
04:55AM 53.6210 -12.6720 106° East 572 658 35,000 120 Climbing FlightAware
04:55AM 53.5970 -12.5350 106° East 571 657 35,000  Level FlightAware
04:56AM 53.5710 -12.3830 106° East 568 654 35,000  Level FlightAware
04:56AM 53.5410 -12.2190 107° East 566 651 35,000  Level FlightAware
04:57AM 53.5180 -12.0880 106° East 566 651 35,000  Level FlightAware
04:58AM 53.4920 -11.9450 107° East 566 651 35,000  Level FlightAware
04:58AM 53.4650 -11.7940 107° East 566 651 35,000  Level FlightAware
04:59AM 53.4340 -11.6310 108° East 565 650 35,000  Level FlightAware
04:59AM 53.4110 -11.5010 106° East 564 649 35,000  Level FlightAware
05:00AM 53.3840 -11.3590 108° East 564 649 35,000  Level FlightAware
05:01AM 53.3520 -11.1880 107° East 564 649 35,000  Level FlightAware
05:01AM 53.3290 -11.0670 108° East 566 651 35,000  Level FlightAware
05:02AM 53.3010 -10.9160 107° East 565 650 35,000  Level FlightAware
05:02AM 53.2730 -10.7740 108° East 564 649 35,000  Level FlightAware
05:03AM 53.2450 -10.6290 108° East 563 648 35,000  Level FlightAware
05:03AM 53.2170 -10.4840 108° East 564 649 35,000  Level FlightAware
05:04AM 53.1880 -10.3400 109° East 566 651 35,000  Level FlightAware
05:05AM 53.1560 -10.1750 108° East 567 652 35,000  Level FlightAware
05:05AM 53.1300 -10.0460 109° East 568 654 35,000  Level FlightAware
05:06AM 53.1010 -9.9050 109° East 568 654 35,000  Level FlightAware
05:06AM 53.0730 -9.7650 108° East 564 649 35,000  Level FlightAware
05:07AM 53.0440 -9.6180 108° East 560 644 35,000  Level FlightAware
05:07AM 53.0150 -9.4800 109° East 556 640 35,000  Level FlightAware
05:08AM 52.9860 -9.3390 109° East 554 638 35,000  Level FlightAware
05:09AM 52.9510 -9.1720 109° East 550 633 35,000  Level FlightAware
05:09AM 52.9260 -9.0530 109° East 548 631 35,000  Level FlightAware
05:10AM 52.8970 -8.9150 109° East 546 628 35,000  Level FlightAware
05:10AM 52.8630 -8.7570 110° East 546 628 35,000  Level FlightAware
05:11AM 52.8390 -8.6430 110° East 545 627 35,000 -240 Level FlightAware
05:11AM 52.8346 -8.6220 110° East 488 562 34,900 -240 Descending FlightAware UK
05:12AM 52.8091 -8.5043 110° East 488 562 34,900 180 Level FlightAware UK
05:12AM 52.8080 -8.5020 110° East 543 625 35,000 120 Climbing FlightAware
05:12AM 52.7750 -8.3490 110° East 544 626 35,000  Level FlightAware
05:13AM 52.7490 -8.2280 110° East 545 627 35,000  Level FlightAware
05:13AM 52.7200 -8.0980 110° East 546 628 35,000  Level FlightAware
05:14AM 52.6840 -7.9330 110° East 544 626 35,000  Level FlightAware
05:14AM 52.6590 -7.8210 110° East 543 625 35,000 -240 Level FlightAware
05:15AM 52.6539 -7.7974 110° East 494 568 34,900 -240 Descending FlightAware UK
05:15AM 52.6276 -7.6809 110° East 496 571 34,900 180 Level FlightAware UK
05:15AM 52.6280 -7.6850 110° East 542 624 35,000 120 Climbing FlightAware
05:16AM 52.5930 -7.5300 110° East 541 623 35,000  Level FlightAware
05:16AM 52.5660 -7.4090 110° East 544 626 35,000  Level FlightAware
05:17AM 52.5370 -7.2820 111° Southeast 544 626 35,000  Level FlightAware
05:17AM 52.5010 -7.1280 111° Southeast 543 625 35,000  Level FlightAware
05:18AM 52.4710 -6.9970 111° Southeast 543 625 35,000  Level FlightAware
05:19AM 52.4400 -6.8630 111° Southeast 542 624 35,000 -120 Level FlightAware
05:19AM 52.4093 -6.7326 111° Southeast 496 571 34,900  Descending FlightAware UK
05:19AM 52.4050 -6.7180 111° Southeast 540 621 35,000 120 Climbing FlightAware
05:20AM 52.3750 -6.5930 111° Southeast 539 620 35,000  Level FlightAware
05:20AM 52.3460 -6.4670 111° Southeast 537 618 35,000  Level FlightAware
05:21AM 52.3140 -6.3320 111° Southeast 536 617 35,000  Level FlightAware
05:22AM 52.2810 -6.1960 112° Southeast 537 618 35,000  Level FlightAware
05:22AM 52.2510 -6.0720 112° Southeast 536 617 35,000  Level FlightAware
05:23AM 52.2190 -5.9440 112° Southeast 536 617 35,000  Level FlightAware
05:23AM 52.1850 -5.8020 111° Southeast 537 618 35,000  Level FlightAware
05:24AM 52.1510 -5.6630 112° Southeast 537 618 35,000  Level FlightAware
05:24AM 52.1210 -5.5430 112° Southeast 537 618 35,000 -180 Level FlightAware
05:24AM 52.1197 -5.5350 112° Southeast 492 566 34,900 -240 Descending FlightAware UK
05:25AM 52.0917 -5.4227 112° Southeast 490 564 34,900 120 Level FlightAware UK
05:25AM 52.0880 -5.4090 112° Southeast 539 620 35,000 120 Climbing FlightAware
05:26AM 52.0540 -5.2730 112° Southeast 541 623 35,000  Level FlightAware
05:26AM 52.0220 -5.1460 112° Southeast 541 623 35,000  Level FlightAware
05:27AM 51.9920 -5.0080 109° East 537 618 35,000  Level FlightAware
05:27AM 51.9720 -4.8680 103° East 531 611 35,000  Level FlightAware
05:28AM 51.9590 -4.7430 103° East 528 608 35,000 -180 Level FlightAware
05:28AM 51.9578 -4.7337 103° East 504 580 34,900 -240 Descending FlightAware UK
05:28AM 51.9456 -4.6170 103° East 508 585 34,900 120 Level FlightAware UK
05:29AM 51.9430 -4.5960 103° East 526 605 35,000 120 Climbing FlightAware
05:29AM 51.9270 -4.4570 101° East 523 602 35,000 -120 Level FlightAware
05:30AM 51.9138 -4.3393 101° East 506 582 34,900  Descending FlightAware UK
05:30AM 51.9140 -4.3410 101° East 523 602 35,000 120 Climbing FlightAware
05:30AM 51.8970 -4.2030 101° East 522 601 35,000 -120 Level FlightAware
05:31AM 51.8797 -4.0630 101° East 502 578 34,900  Descending FlightAware UK
05:31AM 51.8810 -4.0700 101° East 518 596 35,000  Climbing FlightAware
05:31AM 51.8738 -3.9484 101° East 502 578 34,900  Descending FlightAware UK
05:31AM 51.8730 -3.9240 101° East 514 592 35,000 120 Climbing FlightAware
05:32AM 51.8682 -3.8095 94° East 513 590 35,000 -120 Level FlightAware ADS-B
05:33AM 51.8629 -3.6731 94° East 504 580 34,900  Descending FlightAware UK
05:33AM 51.8630 -3.6610 94° East 510 587 35,000 120 Climbing FlightAware
05:33AM 51.8560 -3.5240 95° East 512 589 35,000  Level FlightAware
05:34AM 51.8450 -3.3870 97° East 511 588 35,000  Level FlightAware
05:34AM 51.8360 -3.2660 97° East 512 589 35,000  Level FlightAware
05:35AM 51.8250 -3.1300 97° East 512 589 35,000  Level FlightAware
05:35AM 51.8203 -3.0609 96° East 512 589 35,000  Level FlightAware ADS-B
05:36AM 51.8117 -2.9434 97° East 513 590 35,000  Level FlightAware ADS-B
05:36AM 51.8036 -2.8293 97° East 513 590 35,000  Level FlightAware ADS-B
05:37AM 51.7958 -2.7155 96° East 513 590 35,000  Level FlightAware ADS-B
05:37AM 51.7883 -2.5977 96° East 512 589 35,000  Level FlightAware ADS-B
05:38AM 51.7809 -2.4802 96° East 512 589 35,000  Level FlightAware ADS-B
05:38AM 51.7752 -2.4004 97° East 513 590 35,000  Level FlightAware ADS-B
05:38AM 51.7657 -2.3297 102° East 512 589 35,000  Level FlightAware ADS-B
05:39AM 51.7463 -2.2157 105° East 511 588 35,000  Level FlightAware ADS-B
05:39AM 51.7385 -2.1838 111° Southeast 510 587 35,000  Level FlightAware ADS-B
05:40AM 51.7197 -2.1063 111° Southeast 511 588 35,000  Level FlightAware ADS-B
05:40AM 51.7052 -2.0335 108° East 511 588 35,000  Level FlightAware ADS-B
05:40AM 51.6945 -1.9559 102° East 511 588 35,000  Level FlightAware ADS-B
05:41AM 51.6821 -1.8437 100° East 510 587 35,000  Level FlightAware ADS-B
05:41AM 51.6696 -1.7319 100° East 510 587 35,000  Level FlightAware ADS-B
05:42AM 51.6551 -1.6013 100° East 509 586 35,000  Level FlightAware ADS-B
05:42AM 51.6422 -1.4861 100° East 508 585 35,000  Level FlightAware ADS-B
05:43AM 51.6289 -1.3712 101° East 506 582 35,000  Level FlightAware ADS-B
05:43AM 51.6154 -1.2532 100° East 506 582 35,000  Level FlightAware ADS-B
05:44AM 51.6023 -1.1422 101° East 506 582 35,000  Level FlightAware ADS-B
05:44AM 51.5892 -1.0281 100° East 505 581 35,000  Level FlightAware ADS-B
05:45AM 51.5758 -0.9145 101° East 504 580 35,000  Level FlightAware ADS-B
05:45AM 51.5627 -0.8044 101° East 502 578 35,000  Level FlightAware ADS-B
05:46AM 51.5494 -0.6950 101° East 500 575 35,000  Level FlightAware ADS-B
05:46AM 51.5359 -0.5827 101° East 498 573 35,000  Level FlightAware ADS-B
05:47AM 51.5212 -0.4635 101° East 496 571 35,000  Level FlightAware ADS-B
05:47AM 51.5077 -0.3517 101° East 496 571 35,000  Level FlightAware ADS-B
05:48AM 51.4941 -0.2434 101° East 496 571 35,000  Level FlightAware ADS-B
05:48AM 51.4801 -0.1320 101° East 497 572 35,000  Level FlightAware ADS-B
05:49AM 51.4660 -0.0197 101° East 499 574 35,000  Level FlightAware ADS-B
05:50AM 51.4521 0.0887 102° East 499 574 35,000  Level FlightAware ADS-B
05:50AM 51.4381 0.2006 101° East 498 573 35,000  Level FlightAware ADS-B
05:51AM 51.4232 0.3159 102° East 496 571 35,000  Level FlightAware ADS-B
05:51AM 51.4089 0.4233 102° East 494 568 35,000  Level FlightAware ADS-B
05:52AM 51.3939 0.5376 102° East 494 568 35,000  Level FlightAware ADS-B
05:52AM 51.3798 0.6447 102° East 493 567 35,000  Level FlightAware ADS-B
05:53AM 51.3652 0.7552 102° East 493 567 35,000  Level FlightAware ADS-B
05:53AM 51.3508 0.8619 102° East 492 566 35,000  Level FlightAware ADS-B
05:54AM 51.3356 0.9752 102° East 490 564 35,000 -120 Level FlightAware ADS-B
05:54AM 51.3186 1.1010 102° East 504 580 34,900  Descending FlightAware UK
05:54AM 51.3170 1.1120 102° East 488 562 35,000 360 Climbing FlightAware
05:54AM 51.3118 1.1478 103° East 488 562 35,000 -180 Level FlightAware ADS-B
05:55AM 51.2924 1.2909 103° East 500 575 34,900  Descending FlightAware UK
05:55AM 51.2800 1.3520 103° East 481 554 35,000 60 Climbing FlightAware
05:56AM 51.2500 1.4700 112° Southeast 478 550 35,000  Level FlightAware
05:57AM 51.2139 1.5948 115° Southeast 476 548 35,000  Level FlightAware ADS-B
05:57AM 51.1761 1.7248 115° Southeast 476 548 35,000  Level FlightAware ADS-B
05:58AM 51.1426 1.8387 115° Southeast 475 547 35,000  Level FlightAware ADS-B
05:58AM 51.1148 1.9339 115° Southeast 475 547 35,000  Level FlightAware ADS-B
05:59AM 51.0847 2.0386 115° Southeast 475 547 35,000  Level FlightAware ADS-B
06:00AM 51.0560 2.1360 115° Southeast 476 548 35,000  Level FlightAware
06:00AM 51.0351 2.2060 115° Southeast 476 548 35,000 -120 Level FlightAware ADS-B
06:01AM 50.9999 2.3275 115° Southeast 494 568 34,900  Descending FlightAware UK
06:01AM 50.9890 2.3640 115° Southeast 476 548 35,000 120 Climbing FlightAware
06:01AM 50.9570 2.4680 116° Southeast 476 548 35,000  Level FlightAware
06:02AM 50.9240 2.5820 115° Southeast 476 548 35,000  Level FlightAware
06:02AM 50.8930 2.6850 115° Southeast 471 542 35,000  Level FlightAware
06:03AM 50.8590 2.7950 116° Southeast 470 541 35,000  Level FlightAware
06:04AM 50.8270 2.9010 116° Southeast 468 539 35,000  Level FlightAware
06:04AM 50.7950 3.0020 117° Southeast 466 536 35,000  Level FlightAware
06:05AM 50.7600 3.1200 115° Southeast 464 534 35,000 120 Level FlightAware
06:05AM 50.7270 3.2260 115° Southeast 460 529 35,200 300 Climbing FlightAware
06:05AM 50.7218 3.2443 115° Southeast 488 562 35,200 480 Level FlightAware UK
06:06AM 50.6940 3.3320 116° Southeast 459 528 35,500 600 Climbing FlightAware
06:07AM 50.6610 3.4390 116° Southeast 470 541 35,900 600 Climbing FlightAware
06:07AM 50.6290 3.5400 117° Southeast 477 549 36,200 660 Climbing FlightAware
06:08AM 50.5930 3.6570 117° Southeast 483 556 36,700 780 Climbing FlightAware
06:08AM 50.5891 3.6687 117° Southeast 500 575 36,700 480 Level FlightAware UK
06:08AM 50.5590 3.7610 117° Southeast 483 556 37,000 240 Climbing FlightAware
06:09AM 50.5230 3.8760 116° Southeast 481 554 37,000  Level FlightAware
06:09AM 50.4900 3.9820 116° Southeast 480 552 37,000  Level FlightAware
06:10AM 50.4530 4.0970 117° Southeast 476 548 37,000  Level FlightAware
06:11AM 50.4250 4.1880 117° Southeast 483 556 37,000 -180 Level FlightAware
06:11AM 50.4185 4.2154 117° Southeast 494 568 36,900 -180 Descending FlightAware UK
06:11AM 50.3984 4.3118 117° Southeast 1 1 36,900 120 Level FlightAware UK
06:11AM 50.3950 4.3400 117° Southeast 487 560 37,000 120 Climbing FlightAware
06:12AM 50.3690 4.4720 107° East 488 562 37,000  Level FlightAware
06:12AM 50.3480 4.5780 107° East 489 563 37,000  Level FlightAware
06:13AM 50.3250 4.6970 107° East 490 564 37,000  Level FlightAware
06:14AM 50.2980 4.8280 108° East 484 557 37,000  Level FlightAware
06:14AM 50.2650 4.9430 114° Southeast 481 554 37,000  Level FlightAware
06:15AM 50.2250 5.0620 118° Southeast 479 551 37,000  Level FlightAware
06:16AM 50.1860 5.1710 119° Southeast 478 550 37,000  Level FlightAware
06:16AM 50.1490 5.2770 119° Southeast 475 547 37,000  Level FlightAware
06:17AM 50.1110 5.3820 119° Southeast 475 547 37,000  Level FlightAware
06:17AM 50.0740 5.4870 119° Southeast 475 547 37,000  Level FlightAware
06:18AM 50.0360 5.5920 119° Southeast 476 548 37,000  Level FlightAware
06:18AM 49.9980 5.6980 119° Southeast 476 548 37,000  Level FlightAware
06:19AM 49.9590 5.8060 119° Southeast 476 548 37,000  Level FlightAware
06:20AM 49.9220 5.9070 120° Southeast 475 547 37,000  Level FlightAware
06:20AM 49.8840 6.0120 119° Southeast 474 545 37,000  Level FlightAware
06:21AM 49.8450 6.1160 120° Southeast 474 545 37,000  Level FlightAware
06:21AM 49.8160 6.1970 119° Southeast 474 545 37,000  Level FlightAware
06:22AM 49.7670 6.3300 120° Southeast 474 545 37,000  Level FlightAware
06:23AM 49.7230 6.4490 120° Southeast 474 545 37,000  Level FlightAware
06:23AM 49.6850 6.5490 120° Southeast 478 550 37,000  Level FlightAware
06:24AM 49.6460 6.6530 120° Southeast 479 551 37,000  Level FlightAware
06:24AM 49.6060 6.7590 120° Southeast 479 551 37,000  Level FlightAware
06:25AM 49.5650 6.8680 120° Southeast 479 551 37,000  Level FlightAware
06:26AM 49.5260 6.9710 120° Southeast 479 551 37,000  Level FlightAware
06:26AM 49.4870 7.0740 120° Southeast 479 551 37,000  Level FlightAware
06:27AM 49.4610 7.1410 121° Southeast 479 551 37,000  Level FlightAware
06:27AM 49.4160 7.2580 121° Southeast 479 551 37,000  Level FlightAware
06:28AM 49.3760 7.3480 124° Southeast 475 547 37,000  Level FlightAware
06:28AM 49.3260 7.4520 126° Southeast 473 544 37,000  Level FlightAware
06:29AM 49.2800 7.5420 128° Southeast 472 543 37,000  Level FlightAware
06:30AM 49.2340 7.6310 128° Southeast 472 543 37,000  Level FlightAware
06:30AM 49.1860 7.7230 129° Southeast 472 543 37,000  Level FlightAware
06:31AM 49.1370 7.8170 129° Southeast 473 544 37,000  Level FlightAware
06:31AM 49.0880 7.9110 128° Southeast 473 544 37,000  Level FlightAware
06:32AM 49.0400 8.0020 129° Southeast 473 544 37,000  Level FlightAware
06:32AM 48.9940 8.0910 128° Southeast 475 547 37,000  Level FlightAware
06:33AM 48.9460 8.1820 129° Southeast 476 548 37,000  Level FlightAware
06:34AM 48.8960 8.2760 129° Southeast 476 548 37,000  Level FlightAware
06:34AM 48.8510 8.3590 129° Southeast 477 549 37,000  Level FlightAware
06:35AM 48.7990 8.4580 129° Southeast 477 549 37,000  Level FlightAware
06:35AM 48.7510 8.5490 129° Southeast 477 549 37,000  Level FlightAware
06:36AM 48.7050 8.6340 129° Southeast 476 548 37,000  Level FlightAware
06:37AM 48.6570 8.7250 129° Southeast 477 549 37,000  Level FlightAware
06:37AM 48.6130 8.8050 130° Southeast 477 549 37,000  Level FlightAware
06:38AM 48.5610 8.9030 129° Southeast 477 549 37,000  Level FlightAware
06:38AM 48.5120 8.9930 129° Southeast 478 550 37,000  Level FlightAware
06:39AM 48.4620 9.0840 130° Southeast 479 551 37,000  Level FlightAware
06:39AM 48.4120 9.1740 130° Southeast 481 554 37,000  Level FlightAware
06:40AM 48.3570 9.2750 129° Southeast 481 554 37,000  Level FlightAware
06:41AM 48.3140 9.3540 129° Southeast 480 552 37,000  Level FlightAware
06:41AM 48.2640 9.4430 130° Southeast 476 548 37,000  Level FlightAware
06:42AM 48.2060 9.5240 137° Southeast 469 540 37,000  Level FlightAware
06:42AM 48.1460 9.6030 139° Southeast 467 537 37,000  Level FlightAware
06:43AM 48.0920 9.6730 139° Southeast 467 537 37,000  Level FlightAware
06:44AM 48.0360 9.7440 140° Southeast 465 535 37,000  Level FlightAware
06:44AM 47.9760 9.8210 139° Southeast 463 533 37,000  Level FlightAware
06:45AM 47.9280 9.8830 139° Southeast 462 532 37,000  Level FlightAware
06:45AM 47.8630 9.9640 140° Southeast 461 531 37,000  Level FlightAware
06:46AM 47.8030 10.0370 141° Southeast 460 529 37,000  Level FlightAware
06:46AM 47.7470 10.0980 144° Southeast 461 531 37,000  Level FlightAware
06:47AM 47.6860 10.1660 143° Southeast 463 533 37,000  Level FlightAware
06:48AM 47.6280 10.2310 143° Southeast 465 535 37,000  Level FlightAware
06:48AM 47.5700 10.2930 144° Southeast 466 536 37,000  Level FlightAware
06:49AM 47.4970 10.3730 143° Southeast 467 537 37,000  Level FlightAware
06:49AM 47.4340 10.4410 144° Southeast 468 539 37,000  Level FlightAware
06:50AM 47.3730 10.5000 147° Southeast 464 534 37,000  Level FlightAware
06:51AM 47.3000 10.5600 151° Southeast 463 533 37,000  Level FlightAware
06:51AM 47.2350 10.6100 152° Southeast 462 532 37,000  Level FlightAware
06:52AM 47.1750 10.6770 143° Southeast 481 554 37,000  Level FlightAware
06:52AM 47.1170 10.7630 135° Southeast 480 552 37,000  Level FlightAware
06:53AM 47.0660 10.8370 135° Southeast 482 555 37,000  Level FlightAware
06:54AM 47.0110 10.9210 134° Southeast 485 558 37,000  Level FlightAware
06:54AM 46.9610 10.9960 134° Southeast 485 558 37,000  Level FlightAware
06:55AM 46.8980 11.0900 134° Southeast 487 560 37,000  Level FlightAware
06:56AM 46.8210 11.2030 135° Southeast 488 562 37,000  Level FlightAware
06:56AM 46.7700 11.2770 135° Southeast 490 564 37,000  Level FlightAware
06:57AM 46.7150 11.3570 135° Southeast 492 566 37,000  Level FlightAware
06:57AM 46.6580 11.4420 134° Southeast 493 567 37,000  Level FlightAware
06:58AM 46.5950 11.5340 135° Southeast 492 566 37,000  Level FlightAware
06:58AM 46.5430 11.6110 134° Southeast 490 564 37,000 240 Level FlightAware
06:59AM 46.4890 11.6880 136° Southeast 492 566 37,300 840 Climbing FlightAware
07:00AM 46.4270 11.7790 135° Southeast 491 565 38,000 1,020 Climbing FlightAware
07:00AM 46.3710 11.8610 135° Southeast 489 563 38,600 900 Climbing FlightAware
07:01AM 46.3240 11.9270 136° Southeast 487 560 39,000 300 Climbing FlightAware
07:02AM 46.2580 12.0240 135° Southeast 486 559 39,000  Level FlightAware
07:02AM 46.2040 12.1020 135° Southeast 485 558 39,000  Level FlightAware
07:03AM 46.1400 12.1920 136° Southeast 482 555 39,000  Level FlightAware
07:03AM 46.0750 12.2850 135° Southeast 480 552 39,000  Level FlightAware
07:04AM 46.0300 12.3500 135° Southeast 479 551 39,000  Level FlightAware
07:05AM 45.9720 12.4340 135° Southeast 108 124 39,000  Level FlightAware
07:05AM 45.9090 12.5420 130° Southeast 484 557 39,000  Level FlightAware
07:06AM 45.8610 12.6310 128° Southeast 485 558 39,000  Level FlightAware
07:07AM 45.7990 12.7460 128° Southeast 484 557 39,000  Level FlightAware
07:07AM 45.7460 12.8480 127° Southeast 484 557 39,000  Level FlightAware
07:08AM 45.6980 12.9370 128° Southeast 480 552 39,000  Level FlightAware
07:08AM 45.6500 13.0280 127° Southeast 483 556 39,000  Level FlightAware
07:09AM 45.6030 13.1140 128° Southeast 482 555 39,000  Level FlightAware
07:10AM 45.5540 13.2050 128° Southeast 482 555 39,000  Level FlightAware
07:10AM 45.5070 13.2910 128° Southeast 478 550 39,000  Level FlightAware
07:10AM 45.4800 13.3410 128° Southeast 480 552 39,000  Level FlightAware
07:11AM 45.4070 13.4750 128° Southeast 488 562 39,000  Level FlightAware
07:12AM 45.3570 13.5670 128° Southeast 491 565 39,000  Level FlightAware
07:13AM 45.3130 13.6480 128° Southeast 492 566 39,000  Level FlightAware
07:13AM 45.2620 13.7400 128° Southeast 493 567 39,000  Level FlightAware
07:14AM 45.2110 13.8320 128° Southeast 495 570 39,000  Level FlightAware
07:14AM 45.1630 13.9190 128° Southeast 497 572 39,000  Level FlightAware
07:15AM 45.1120 14.0110 128° Southeast 499 574 39,000  Level FlightAware
07:15AM 45.0630 14.0980 129° Southeast 501 577 39,000  Level FlightAware
07:16AM 45.0120 14.1910 128° Southeast 501 577 39,000  Level FlightAware
07:17AM 44.9600 14.2830 129° Southeast 503 579 39,000  Level FlightAware
07:17AM 44.9120 14.3680 129° Southeast 504 580 39,000  Level FlightAware
07:18AM 44.8720 14.4400 128° Southeast 499 574 39,000  Level FlightAware
07:18AM 44.8130 14.5420 129° Southeast 499 574 39,000  Level FlightAware
07:19AM 44.7660 14.6270 128° Southeast 505 581 39,000  Level FlightAware
07:20AM 44.7060 14.7320 129° Southeast 507 583 39,000  Level FlightAware
07:20AM 44.6340 14.8580 129° Southeast 508 585 39,000  Level FlightAware
07:21AM 44.5800 14.9500 129° Southeast 502 578 39,000  Level FlightAware
07:22AM 44.5260 15.0470 128° Southeast 501 577 39,000  Level FlightAware
07:22AM 44.4690 15.1440 129° Southeast 499 574 39,000  Level FlightAware
07:23AM 44.4170 15.2320 130° Southeast 498 573 39,000  Level FlightAware
07:23AM 44.3670 15.3200 128° Southeast 497 572 39,000  Level FlightAware
07:24AM 44.3080 15.4210 129° Southeast 496 571 39,000  Level FlightAware
07:25AM 44.2550 15.5110 129° Southeast 496 571 39,000  Level FlightAware
07:25AM 44.1970 15.6080 130° Southeast 496 571 39,000  Level FlightAware
07:26AM 44.1490 15.6930 128° Southeast 502 578 39,000  Level FlightAware
07:26AM 44.0970 15.7810 129° Southeast 503 579 39,000  Level FlightAware
07:27AM 44.0430 15.8710 130° Southeast 505 581 39,000  Level FlightAware
07:28AM 43.9940 15.9530 130° Southeast 506 582 39,000  Level FlightAware
07:28AM 43.9350 16.0540 129° Southeast 508 585 39,000  Level FlightAware
07:29AM 43.8710 16.1590 130° Southeast 511 588 39,000  Level FlightAware
07:30AM 43.8150 16.2520 130° Southeast 511 588 39,000  Level FlightAware
07:30AM 43.7600 16.3450 129° Southeast 511 588 39,000  Level FlightAware
07:31AM 43.7070 16.4330 130° Southeast 511 588 39,000  Level FlightAware
07:31AM 43.6500 16.5260 130° Southeast 507 583 39,000  Level FlightAware
07:32AM 43.5960 16.6130 131° Southeast 507 583 39,000  Level FlightAware
07:33AM 43.5350 16.7140 130° Southeast 508 585 39,000  Level FlightAware
07:33AM 43.4880 16.7910 130° Southeast 513 590 39,000  Level FlightAware
07:34AM 43.4300 16.8860 130° Southeast 514 592 39,000  Level FlightAware
07:34AM 43.3750 16.9720 131° Southeast 516 594 39,000  Level FlightAware
07:35AM 43.3160 17.0590 133° Southeast 517 595 39,000  Level FlightAware
07:35AM 43.2640 17.1390 132° Southeast 518 596 39,000  Level FlightAware
07:36AM 43.2030 17.2300 133° Southeast 519 597 39,000  Level FlightAware
07:37AM 43.1470 17.3150 132° Southeast 521 600 39,000  Level FlightAware
07:37AM 43.0910 17.4000 132° Southeast 521 600 39,000  Level FlightAware
07:38AM 43.0370 17.4810 132° Southeast 523 602 39,000  Level FlightAware
07:38AM 42.9820 17.5620 133° Southeast 523 602 39,000  Level FlightAware
07:39AM 42.9220 17.6520 132° Southeast 525 604 39,000  Level FlightAware
07:40AM 42.8610 17.7450 132° Southeast 523 602 39,000  Level FlightAware
07:40AM 42.8100 17.8200 133° Southeast 521 600 39,000  Level FlightAware
07:41AM 42.7500 17.9090 133° Southeast 520 598 39,000  Level FlightAware
07:41AM 42.6910 17.9950 133° Southeast 520 598 39,000  Level FlightAware
07:42AM 42.6320 18.0820 133° Southeast 519 597 39,000  Level FlightAware
07:42AM 42.5840 18.1540 132° Southeast 518 596 39,000  Level FlightAware
07:43AM 42.5230 18.2420 133° Southeast 516 594 39,000  Level FlightAware
07:44AM 42.4660 18.3250 133° Southeast 516 594 39,000  Level FlightAware
07:44AM 42.4090 18.4070 133° Southeast 515 593 39,000  Level FlightAware
07:45AM 42.3530 18.4890 133° Southeast 515 593 39,000  Level FlightAware
07:45AM 42.2930 18.5770 133° Southeast 517 595 39,000  Level FlightAware
07:46AM 42.2350 18.6590 134° Southeast 517 595 39,000  Level FlightAware
07:47AM 42.1850 18.7300 134° Southeast 519 597 39,000  Level FlightAware
07:47AM 42.1190 18.8270 133° Southeast 521 600 39,000  Level FlightAware
07:48AM 42.0610 18.9070 134° Southeast 523 602 39,000  Level FlightAware
07:48AM 42.0050 18.9880 133° Southeast 524 603 39,000  Level FlightAware
07:49AM 41.9510 19.0660 133° Southeast 526 605 39,000  Level FlightAware
07:50AM 41.8880 19.1540 134° Southeast 528 608 39,000  Level FlightAware
07:50AM 41.8330 19.2320 133° Southeast 529 609 39,000  Level FlightAware
07:51AM 41.7720 19.3140 135° Southeast 529 609 39,000  Level FlightAware
07:51AM 41.7070 19.3980 136° Southeast 528 608 39,000 -120 Level FlightAware
07:52AM 41.6440 19.4790 136° Southeast 524 603 38,900  Descending FlightAware
07:52AM 41.5800 19.5610 136° Southeast 521 600 39,000 60 Climbing FlightAware
07:53AM 41.5250 19.6290 137° Southeast 517 595 39,000  Level FlightAware
07:54AM 41.4620 19.7080 137° Southeast 516 594 39,000  Level FlightAware
07:54AM 41.4000 19.7890 136° Southeast 514 592 39,000  Level FlightAware
07:55AM 41.3440 19.8590 137° Southeast 513 590 39,000  Level FlightAware
07:55AM 41.2810 19.9390 136° Southeast 512 589 39,000  Level FlightAware
07:56AM 41.2160 20.0190 137° Southeast 514 592 39,000  Level FlightAware
07:57AM 41.1570 20.0930 137° Southeast 514 592 39,000  Level FlightAware
07:57AM 41.1020 20.1620 137° Southeast 514 592 39,000  Level FlightAware
07:58AM 41.0410 20.2380 137° Southeast 514 592 39,000  Level FlightAware
07:58AM 40.9760 20.3200 136° Southeast 515 593 39,000  Level FlightAware
07:59AM 40.9140 20.3950 138° Southeast 516 594 39,000  Level FlightAware
07:59AM 40.8580 20.4660 136° Southeast 517 595 39,000  Level FlightAware
08:00AM 40.7940 20.5440 137° Southeast 517 595 39,000  Level FlightAware
08:01AM 40.7320 20.6190 137° Southeast 519 597 39,000  Level FlightAware
08:01AM 40.6720 20.6930 137° Southeast 521 600 39,000  Level FlightAware
08:02AM 40.6110 20.7680 137° Southeast 520 598 39,000  Level FlightAware
08:02AM 40.5510 20.8410 137° Southeast 520 598 39,000  Level FlightAware
08:03AM 40.4810 20.9270 137° Southeast 520 598 39,000  Level FlightAware
08:04AM 40.4240 20.9960 137° Southeast 520 598 39,000  Level FlightAware
08:04AM 40.3610 21.0710 138° Southeast 520 598 39,000  Level FlightAware
08:05AM 40.2980 21.1520 136° Southeast 520 598 39,000  Level FlightAware
08:05AM 40.2470 21.2240 133° Southeast 520 598 39,000  Level FlightAware
08:06AM 40.1890 21.3080 132° Southeast 519 597 39,000  Level FlightAware
08:06AM 40.1280 21.3970 132° Southeast 519 597 39,000  Level FlightAware
08:07AM 40.0760 21.4740 131° Southeast 519 597 39,000  Level FlightAware
08:08AM 40.0190 21.5590 131° Southeast 518 596 39,000  Level FlightAware
08:08AM 39.9620 21.6400 133° Southeast 518 596 39,000  Level FlightAware
08:09AM 39.9060 21.7220 132° Southeast 519 597 39,000  Level FlightAware
08:09AM 39.8510 21.8010 132° Southeast 520 598 39,000  Level FlightAware
08:10AM 39.7980 21.8800 131° Southeast 521 600 39,000  Level FlightAware
08:10AM 39.7430 21.9590 132° Southeast 520 598 39,000  Level FlightAware
08:11AM 39.6690 22.0640 132° Southeast 523 602 39,000 -120 Level FlightAware
08:12AM 39.6070 22.1520 132° Southeast 523 602 38,900  Descending FlightAware
08:12AM 39.5550 22.2290 131° Southeast 523 602 39,000 60 Climbing FlightAware
08:13AM 39.5010 22.3060 132° Southeast 525 604 39,000  Level FlightAware
08:14AM 39.4370 22.3970 132° Southeast 526 605 39,000  Level FlightAware
08:14AM 39.3820 22.4730 133° Southeast 526 605 39,000  Level FlightAware
08:15AM 39.3240 22.5570 132° Southeast 526 605 39,000  Level FlightAware
08:15AM 39.2670 22.6380 132° Southeast 526 605 39,000  Level FlightAware
08:16AM 39.2130 22.7150 132° Southeast 525 604 39,000  Level FlightAware
08:17AM 39.1530 22.7980 133° Southeast 526 605 39,000  Level FlightAware
08:17AM 39.0950 22.8780 133° Southeast 525 604 39,000  Level FlightAware
08:18AM 39.0350 22.9640 132° Southeast 525 604 39,000  Level FlightAware
08:18AM 38.9770 23.0440 133° Southeast 525 604 39,000  Level FlightAware
08:19AM 38.9170 23.1270 133° Southeast 525 604 39,000  Level FlightAware
08:19AM 38.8660 23.1970 133° Southeast 524 603 39,000  Level FlightAware
08:20AM 38.8040 23.2840 132° Southeast 525 604 39,000  Level FlightAware
08:21AM 38.7480 23.3610 133° Southeast 525 604 39,000  Level FlightAware
08:21AM 38.6930 23.4370 133° Southeast 525 604 39,000  Level FlightAware
08:22AM 38.6320 23.5210 133° Southeast 527 606 39,000  Level FlightAware
08:22AM 38.5770 23.5960 133° Southeast 527 606 39,000  Level FlightAware
08:23AM 38.5140 23.6820 133° Southeast 527 606 39,000  Level FlightAware
08:24AM 38.4570 23.7600 133° Southeast 528 608 39,000  Level FlightAware
08:24AM 38.3990 23.8370 134° Southeast 528 608 39,000  Level FlightAware
08:25AM 38.3370 23.9210 133° Southeast 528 608 39,000  Level FlightAware
08:25AM 38.2750 24.0050 133° Southeast 527 606 39,000  Level FlightAware
08:26AM 38.2250 24.0720 134° Southeast 528 608 39,000  Level FlightAware
08:26AM 38.1620 24.1580 133° Southeast 528 608 39,000  Level FlightAware
08:27AM 38.1080 24.2300 134° Southeast 527 606 39,000  Level FlightAware
08:28AM 38.0470 24.3110 134° Southeast 528 608 39,000  Level FlightAware
08:28AM 37.9890 24.3900 133° Southeast 527 606 39,000  Level FlightAware
08:29AM 37.9260 24.4720 134° Southeast 526 605 39,000  Level FlightAware
08:29AM 37.8670 24.5510 133° Southeast 528 608 39,000  Level FlightAware
08:30AM 37.8110 24.6240 134° Southeast 528 608 39,000  Level FlightAware
08:31AM 37.7520 24.7030 133° Southeast 528 608 39,000  Level FlightAware
08:31AM 37.6880 24.7870 134° Southeast 529 609 39,000  Level FlightAware
08:32AM 37.6340 24.8580 134° Southeast 529 609 39,000  Level FlightAware
08:32AM 37.5720 24.9400 134° Southeast 527 606 39,000  Level FlightAware
08:33AM 37.5090 25.0220 134° Southeast 528 608 39,000  Level FlightAware
08:33AM 37.4580 25.0890 134° Southeast 526 605 39,000  Level FlightAware
08:34AM 37.3960 25.1700 134° Southeast 524 603 39,000  Level FlightAware
08:35AM 37.3330 25.2510 134° Southeast 522 601 39,000  Level FlightAware
08:35AM 37.2760 25.3250 134° Southeast 521 600 39,000  Level FlightAware
08:36AM 37.2210 25.3960 134° Southeast 519 597 39,000  Level FlightAware
08:36AM 37.1620 25.4720 134° Southeast 518 596 39,000  Level FlightAware
08:37AM 37.0980 25.5560 134° Southeast 516 594 39,000  Level FlightAware
08:38AM 37.0470 25.6200 135° Southeast 516 594 39,000  Level FlightAware
08:38AM 36.9850 25.6990 134° Southeast 514 592 39,000  Level FlightAware
08:39AM 36.9240 25.7770 134° Southeast 511 588 39,000  Level FlightAware
08:39AM 36.8660 25.8510 134° Southeast 509 586 39,000  Level FlightAware
08:40AM 36.8140 25.9160 135° Southeast 509 586 39,000  Level FlightAware
08:40AM 36.7540 25.9940 134° Southeast 507 583 39,000  Level FlightAware
08:41AM 36.7010 26.0600 135° Southeast 507 583 39,000  Level FlightAware
08:42AM 36.6390 26.1400 134° Southeast 507 583 39,000  Level FlightAware
08:42AM 36.5840 26.2110 134° Southeast 509 586 39,000  Level FlightAware
08:43AM 36.5350 26.2920 127° Southeast 517 595 39,000  Level FlightAware
08:43AM 36.4890 26.3830 122° Southeast 518 596 39,000  Level FlightAware
08:44AM 36.4410 26.4790 122° Southeast 519 597 39,000  Level FlightAware
08:45AM 36.4000 26.5630 121° Southeast 520 598 39,000  Level FlightAware
08:45AM 36.3580 26.6460 122° Southeast 521 600 39,000  Level FlightAware
08:46AM 36.3070 26.7480 122° Southeast 523 602 39,000  Level FlightAware
08:46AM 36.2670 26.8270 122° Southeast 524 603 39,000  Level FlightAware
08:47AM 36.2140 26.9310 122° Southeast 523 602 39,000  Level FlightAware
08:48AM 36.1590 27.0370 123° Southeast 523 602 39,000  Level FlightAware
08:48AM 36.1200 27.1160 121° Southeast 522 601 39,000  Level FlightAware
08:49AM 36.0760 27.2020 122° Southeast 522 601 39,000  Level FlightAware
08:49AM 36.0370 27.2800 122° Southeast 522 601 39,000  Level FlightAware
08:50AM 35.9950 27.3610 123° Southeast 522 601 39,000  Level FlightAware
08:51AM 35.9520 27.4470 122° Southeast 522 601 39,000  Level FlightAware
08:51AM 35.9120 27.5270 122° Southeast 522 601 39,000  Level FlightAware
08:52AM 35.8710 27.6060 123° Southeast 522 601 39,000  Level FlightAware
08:53AM 35.8320 27.6840 122° Southeast 522 601 39,000  Level FlightAware
08:53AM 35.7920 27.7630 122° Southeast 522 601 39,000  Level FlightAware
08:54AM 35.7530 27.8400 122° Southeast 522 601 39,000  Level FlightAware
08:54AM 35.7140 27.9180 122° Southeast 522 601 39,000  Level FlightAware
08:55AM 35.5970 28.1240 125° Southeast 520 598 39,000  Level FlightAware
08:55AM 35.5540 28.2060 123° Southeast 520 598 39,000  Level FlightAware
08:56AM 35.5040 28.3000 123° Southeast 520 598 39,000  Level FlightAware
08:57AM 35.4640 28.3770 123° Southeast 519 597 39,000  Level FlightAware
08:57AM 35.4150 28.4680 123° Southeast 518 596 39,000  Level FlightAware
08:58AM 35.3710 28.5490 124° Southeast 518 596 39,000  Level FlightAware
08:58AM 35.3190 28.6470 123° Southeast 518 596 39,000  Level FlightAware
08:59AM 35.2760 28.7290 123° Southeast 518 596 39,000  Level FlightAware
09:00AM 35.2280 28.8190 123° Southeast 517 595 39,000  Level FlightAware
09:00AM 35.1900 28.8900 123° Southeast 517 595 39,000  Level FlightAware
09:01AM 35.1470 28.9680 124° Southeast 512 589 39,000  Level FlightAware
09:01AM 35.0880 29.0780 123° Southeast 512 589 39,000  Level FlightAware
09:02AM 35.0390 29.1710 123° Southeast 511 588 39,000  Level FlightAware
09:03AM 35.0010 29.2460 122° Southeast 511 588 39,000  Level FlightAware
09:03AM 34.9610 29.3230 122° Southeast 511 588 39,000  Level FlightAware
09:04AM 34.9230 29.3980 122° Southeast 511 588 39,000  Level FlightAware
09:05AM 34.8840 29.4730 122° Southeast 511 588 39,000  Level FlightAware
09:05AM 34.7930 29.6180 127° Southeast 507 583 39,000  Level FlightAware
09:06AM 34.7450 29.7070 123° Southeast 507 583 39,000  Level FlightAware
09:06AM 34.7030 29.7840 124° Southeast 506 582 39,000  Level FlightAware
09:07AM 34.6630 29.8590 123° Southeast 506 582 39,000  Level FlightAware
09:08AM 34.6240 29.9320 123° Southeast 506 582 39,000  Level FlightAware
09:08AM 34.5850 30.0050 123° Southeast 506 582 39,000  Level FlightAware
09:09AM 34.5460 30.0780 123° Southeast 506 582 39,000  Level FlightAware
09:09AM 34.4720 30.2350 120° Southeast 515 593 39,000  Level FlightAware
09:10AM 34.4330 30.3190 119° Southeast 515 593 39,000  Level FlightAware
09:11AM 34.3900 30.4070 121° Southeast 513 590 39,000  Level FlightAware
09:11AM 34.3470 30.4930 121° Southeast 512 589 39,000  Level FlightAware
09:12AM 34.3060 30.5800 120° Southeast 511 588 39,000  Level FlightAware
09:12AM 34.2630 30.6680 121° Southeast 506 582 39,000  Level FlightAware
09:13AM 34.2230 30.7500 121° Southeast 493 567 39,000  Level FlightAware
09:13AM 34.1810 30.8360 121° Southeast 489 563 39,000  Level FlightAware
09:14AM 34.1410 30.9190 120° Southeast 487 560 39,000  Level FlightAware
09:15AM 34.1010 30.9990 121° Southeast 486 559 39,000  Level FlightAware
09:15AM 34.0620 31.0810 120° Southeast 486 559 39,000  Level FlightAware
09:16AM 34.0170 31.1710 121° Southeast 486 559 39,000  Level FlightAware
09:16AM 33.9790 31.2480 121° Southeast 486 559 39,000  Level FlightAware
09:17AM 33.9370 31.3350 120° Southeast 485 558 39,000  Level FlightAware
09:18AM 33.8900 31.4280 121° Southeast 484 557 39,000  Level FlightAware
09:18AM 33.8500 31.5100 120° Southeast 483 556 39,000  Level FlightAware
09:19AM 33.8050 31.6000 121° Southeast 483 556 39,000  Level FlightAware
09:19AM 33.7690 31.6730 121° Southeast 483 556 39,000  Level FlightAware
09:20AM 33.7280 31.7540 121° Southeast 485 558 39,000  Level FlightAware
09:21AM 33.6880 31.8350 121° Southeast 485 558 39,000  Level FlightAware
09:21AM 33.6480 31.9150 121° Southeast 487 560 39,000  Level FlightAware
09:22AM 33.6010 32.0060 122° Southeast 488 562 39,000  Level FlightAware
09:22AM 33.5620 32.0850 121° Southeast 488 562 39,000  Level FlightAware
09:23AM 33.5210 32.1650 122° Southeast 489 563 39,000  Level FlightAware
09:24AM 33.4710 32.2650 121° Southeast 493 567 39,000  Level FlightAware
09:24AM 33.4300 32.3470 121° Southeast 494 568 39,000 -240 Level FlightAware
09:25AM 33.3960 32.4120 122° Southeast 319 367 38,800 -1,500 Descending FlightAware
09:25AM 33.3460 32.5120 121° Southeast 491 565 37,300 -2,220 Descending FlightAware
09:26AM 33.3030 32.5950 122° Southeast 483 556 36,100 -2,040 Descending FlightAware
09:27AM 33.2630 32.6720 122° Southeast 473 544 34,900 -2,040 Descending FlightAware
09:27AM 33.2300 32.7370 121° Southeast 471 542 33,900 -2,100 Descending FlightAware
09:28AM 33.1850 32.8240 122° Southeast 469 540 32,500 -2,100 Descending FlightAware
09:28AM 33.1450 32.9030 121° Southeast 464 534 31,400 -1,680 Descending FlightAware
09:29AM 33.1080 32.9740 122° Southeast 456 525 30,600 -1,320 Descending FlightAware
09:29AM 33.0680 33.0520 121° Southeast 444 511 29,900 -1,320 Descending FlightAware
09:30AM 33.0350 33.1160 122° Southeast 435 501 29,200 -1,680 Descending FlightAware
09:30AM 33.0180 33.1540 118° Southeast 440 506 28,600 -2,040 Descending FlightAware
09:31AM 33.0060 33.2110 104° East 451 519 27,800 -1,620 Descending FlightAware
09:31AM 32.9980 33.2890 97° East 434 499 27,100 -1,980 Descending FlightAware
09:32AM 32.9870 33.3770 98° East 424 488 25,500 -2,160 Descending FlightAware
09:32AM 32.9770 33.4580 98° East 417 480 24,500 -1,620 Descending FlightAware
09:33AM 32.9690 33.5220 98° East 407 468 23,800 -1,800 Descending FlightAware
09:33AM 32.9560 33.5980 102° East 396 456 22,600 -1,740 Descending FlightAware
09:34AM 32.9280 33.6650 116° Southeast 382 440 21,800 -1,620 Descending FlightAware
09:35AM 32.9010 33.7260 118° Southeast 378 435 20,800 -1,800 Descending FlightAware
09:35AM 32.8710 33.7930 118° Southeast 371 427 19,700 -1,800 Descending FlightAware
09:36AM 32.8410 33.8590 118° Southeast 366 421 18,700 -1,680 Descending FlightAware
09:36AM 32.8120 33.9230 118° Southeast 361 415 17,700 -1,680 Descending FlightAware
09:37AM 32.7840 33.9860 118° Southeast 356 410 16,700 -1,620 Descending FlightAware
09:38AM 32.7600 34.0370 119° Southeast 352 405 15,900 -1,680 Descending FlightAware
09:38AM 32.7420 34.0610 132° Southeast 339 390 15,400 -1,740 Descending FlightAware
09:38AM 32.7290 34.0710 147° Southeast 328 377 15,100 -1,380 Descending FlightAware
09:38AM 32.7050 34.0770 168° South 310 357 14,800 -840 Descending FlightAware
09:39AM 32.7020 34.0770 180° South 297 342 14,500 -420 Descending FlightAware
09:39AM 32.6290 34.0780 179° South 290 334 14,400 -720 Descending FlightAware
09:40AM 32.5890 34.0800 178° South 285 328 13,800 -960 Descending FlightAware
09:41AM 32.5100 34.0820 179° South 299 344 13,100 -840 Descending FlightAware
09:41AM 32.4910 34.0840 175° South 299 344 12,900 -1,440 Descending FlightAware
09:41AM 32.4650 34.0980 156° South 304 350 12,300 -1,740 Descending FlightAware
09:42AM 32.4420 34.1230 137° Southeast 313 360 11,700 -1,500 Descending FlightAware
09:42AM 32.4120 34.1700 127° Southeast 309 356 10,900 -1,440 Descending FlightAware
09:43AM 32.3750 34.2300 126° Southeast 301 346 9,900 -840 Descending FlightAware
09:43AM 32.3550 34.2630 126° Southeast 300 345 9,900 -960 Level FlightAware
09:44AM 32.3400 34.2870 126° Southeast 287 330 9,200 -1,680 Descending FlightAware
09:44AM 32.3270 34.3070 128° Southeast 285 328 8,900 -1,200 Descending FlightAware
09:45AM 32.3020 34.3450 128° Southeast 284 327 8,200 -1,440 Descending FlightAware
09:45AM 32.2820 34.3790 125° Southeast 281 323 7,600 -1,380 Descending FlightAware
09:45AM 32.2660 34.4030 128° Southeast 280 322 7,200 -1,200 Descending FlightAware
09:46AM 32.2510 34.4250 129° Southeast 280 322 6,800 -1,200 Descending FlightAware
09:46AM 32.2330 34.4560 124° Southeast 278 320 6,300 -1,320 Descending FlightAware
09:46AM 32.2140 34.4920 122° Southeast 276 318 5,700 -1,380 Descending FlightAware
09:47AM 32.2040 34.5110 122° Southeast 274 315 5,400 -840 Descending FlightAware
09:47AM 32.1860 34.5450 122° Southeast 272 313 5,100 -420 Descending FlightAware
09:47AM 32.1750 34.5670 121° Southeast 271 312 5,100  Level FlightAware
09:48AM 32.1540 34.6060 122° Southeast 270 311 5,100  Level FlightAware
09:48AM 32.1410 34.6320 121° Southeast 271 312 5,100  Level FlightAware
09:49AM 32.1310 34.6490 125° Southeast 263 303 5,100  Level FlightAware
09:49AM 32.1190 34.6700 124° Southeast 253 291 5,100  Level FlightAware
09:49AM 32.1070 34.6920 123° Southeast 242 278 5,100  Level FlightAware
09:50AM 32.0940 34.7160 123° Southeast 239 275 5,100  Level FlightAware
09:50AM 32.0850 34.7320 124° Southeast 237 273 5,100  Level FlightAware
09:50AM 32.0680 34.7640 122° Southeast 227 261 5,100  Level FlightAware
09:51AM 32.0560 34.7790 133° Southeast 225 259 5,100 -600 Level FlightAware
09:51AM 32.0390 34.8000 134° Southeast 210 242 4,700 -840 Descending FlightAware
09:51AM 32.0340 34.8060 135° Southeast 210 242 4,600 -180 Descending FlightAware
09:52AM 32.0140 34.8270 138° Southeast 210 242 4,600  Level FlightAware
09:52AM 32.0030 34.8400 135° Southeast 209 241 4,600 -660 Level FlightAware
09:52AM 31.9810 34.8650 136° Southeast 204 235 4,100 -1,200 Descending FlightAware
09:53AM 31.9750 34.8760 123° Southeast 203 234 3,800 -1,800 Descending FlightAware
09:53AM 31.9720 34.8890 105° East 204 235 3,400 -1,260 Descending FlightAware
09:53AM 31.9770 34.9120 76° East 192 221 3,100 -900 Descending FlightAware
09:53AM 31.9810 34.9300 75° East 186 214 2,800 -1,080 Descending FlightAware
09:54AM 31.9860 34.9510 74° East 180 207 2,400 -1,200 Descending FlightAware
09:54AM 31.9900 34.9570 52° Northeast 176 203 2,200 -1,680 Descending FlightAware
09:54AM 32.0030 34.9640 25° Northeast 172 198 1,700 -1,200 Descending FlightAware
09:55AM 32.0170 34.9610 350° North 160 184 1,500 -780 Descending FlightAware
09:55AM 32.0240 34.9560 329° Northwest 150 173 1,300 -780 Descending FlightAware
09:55AM 32.0260 34.9470 285° West 145 167 1,200 -900 Descending FlightAware
09:55AM 32.0220 34.9220 259° West 147 169 700 -900 Descending FlightAware
09:56AM 32.0200 34.9080 260° West 144 166 500 -720 Descending FlightAware
09:56AM 32.0160 34.8820 260° West 110 127 -840 Descending FlightAware